LEAM/LEI METAR and TAF weather

Enter ICAO airport designator
Station Type Date Time Source
LEAM METAR 2019/04/18 22:30 UTC NOAA

LEAM 182230Z AUTO 25006KT CAVOK 15/12 Q1013


Station Type Date Time Source
LEAM Decoded METAR 2019/04/18 22:30 UTC NOAA

Almeria / Aeropuerto, Spain (LEAM) 36-51N 002-23W 21M
Apr 18, 2019 - 06:30 PM EDT / 2019.04.18 2230 UTC
Wind: from the WSW (250 degrees) at 7 MPH (6 KT):0
Visibility: greater than 7 mile(s):0
Temperature: 59 F (15 C)
Dew Point: 53 F (12 C)
Relative Humidity: 82%
Pressure (altimeter): 29.91 in. Hg (1013 hPa)
ob: LEAM 182230Z AUTO 25006KT CAVOK 15/12 Q1013
cycle: 22

Station Type Date Time Source
LEAM TAF 2019/04/18 21:27 UTC NOAA

TAF TAF LEAM 182000Z 1821/1921 26012KT 9999 FEW020 SCT040 TX18/1913Z TN11/1906Z
BECMG 1821/1824 34007KT
BECMG 1909/1912 19010KT PROB40
TEMPO 1912/1918 4000 SHRA SCT025TCU BKN030

Example: see airport list